Coron, Philippines
Current Conditions -  °F | °C
As of 2:00 AM on Friday 31 Oct 2014 (Local Time) from RPLL Reporting Station
Broken Clouds Broken Clouds  
Wind Chill: 26°   Ceiling: 10000
Heat Index: 28°   Visibility: 6mi
Dew Point: 25°   Wind: 2mph
Humidity: 94%   Direction: 100°E
Pressure: 29.83"   Gusts: NA
Location:  12°N, 120.21°E
Report Text: RPLL 301800Z 10002KT 9999 SCT025 BKN100 26/25 Q1010 NOSIG RMK A2983
Loading
Personal Weather Stations






























Interactive Weather Map
Tropical Storm Tracking
New forecast layout! Learn more

10-Day Weather Forecast

Advertisements
Track Severe Weather on mobile